Avioradar koristi kolačiće da bi Vam omogućio jednostavnije i ugodnije korištenje stranice. 

AVIORADAR - Novosti i informacije

POREMEĆAJ 16.04.2017.

Nenad Sredojević.

f_800_450_16119285_00_images_SQUAWK_daniel_pavlinovic_LDDU_160417.jpg

Zbog grmljavinskog nevremena (CB) praćenog tučom došlo je do poremećaja u prometu na ZL Dubrovnik.

Trenutno zahvaćeni letovi:

- VJT425  LIML - LDDU -> holding KLP 7000FT -> preusmjeren LDSP -> Sletio na LDDU 17:30

- IBE31AP LEMD - LDDU -> holding NERRA FL210 -> u prilazu -> Sletio 14:15

- CTN419 EDDF - LDDU ->holding NERRA FL210 -> preusmjeren LDSP -> Sletio na LDDU 15:15

CTN8A LDZA - LDDU -> holding NERRA FL190 -> u prilazu -> Sletio 14:00

- AUA731D LOWW -LDDU -> holding NERA FL230 -> u prilazu -> Sletio 14:33

- CTN29F LFPG -LDDU -> holding SIPAL FL250 -> u prilazu -> Sletio 14:23

Nakon 14:00LT situacija se popravila te su zrakoplovi u holdingu krenuli u prilaz. Prvi je situaciju provjerio CTN8A 9A-CTK Airbus A320-214 na letu iz Zagreba. 

Zbog nepovoljne prognoze nastavljamo pratiti situaciju.

TAF LDDU 161125Z 1612/1712 12008KT 8000 BKN016
                 TX15/1711Z TN11/1704Z
           TEMPO 1612/1619 VRB15G28KT 2000 TSRA BKN013 SCT017CB
    PROB40 TEMPO 1612/1619 1000 +TSRA BKN007 SCT015CB
           BECMG 1618/1620 02020KT
           TEMPO 1620/1624 02020G30KT
           BECMG 1700/1703 08009KT
           BECMG 1708/1711 02014KT=

 

Foto: Daniel Pavlinovic - Dubrovnik 16.04.2017

Twitter